createdAt,value
2019-03-31T00:04:59.113Z,101238.42
2019-03-31T00:10:04.022Z,101233.86
2019-03-31T00:15:09.228Z,101239.66
2019-03-31T00:20:14.507Z,101231.51
2019-03-31T00:25:19.301Z,101233.69
2019-03-31T00:30:24.557Z,101233.47
2019-03-31T00:35:29.313Z,101232.41
2019-03-31T00:40:34.106Z,101238.06
2019-03-31T00:45:39.049Z,101230.23
2019-03-31T00:50:43.830Z,101242.77
2019-03-31T00:55:48.600Z,101231.81
2019-03-31T01:01:13.710Z,101234.87
2019-03-31T01:06:20.631Z,101235.94
2019-03-31T01:11:27.004Z,101240.06
2019-03-31T01:16:33.394Z,101248.20
2019-03-31T01:21:38.161Z,101244.47
2019-03-31T01:26:43.290Z,101245.68
2019-03-31T01:31:50.501Z,101252.56
2019-03-31T01:36:55.126Z,101260.53
2019-03-31T01:42:00.054Z,101263.96
2019-03-31T01:47:06.782Z,101264.45
2019-03-31T01:52:11.922Z,101270.02
2019-03-31T01:57:16.786Z,101273.66
2019-03-31T02:02:27.462Z,101271.66
2019-03-31T02:07:32.232Z,101268.56
2019-03-31T02:12:37.231Z,101275.42
2019-03-31T02:17:42.044Z,101277.05
2019-03-31T02:22:46.924Z,101282.66
2019-03-31T02:27:51.845Z,101289.85
2019-03-31T02:32:56.742Z,101288.92
2019-03-31T02:38:01.673Z,101279.28
2019-03-31T02:43:06.490Z,101278.22
2019-03-31T02:48:11.876Z,101280.47
2019-03-31T02:53:18.500Z,101270.30
2019-03-31T02:58:23.280Z,101277.69
2019-03-31T03:03:30.571Z,101279.76
2019-03-31T03:08:37.061Z,101287.36
2019-03-31T03:13:43.660Z,101295.72
2019-03-31T03:18:49.308Z,101300.23
2019-03-31T03:23:54.097Z,101303.10
2019-03-31T03:28:58.911Z,101302.38
2019-03-31T03:34:03.727Z,101310.41
2019-03-31T03:39:09.237Z,101313.59
2019-03-31T03:44:14.340Z,101315.02
2019-03-31T03:49:19.402Z,101325.19
2019-03-31T03:54:24.244Z,101322.36
2019-03-31T03:59:29.040Z,101323.57
2019-03-31T04:04:33.788Z,101323.97
2019-03-31T04:09:38.568Z,101334.66
2019-03-31T04:14:43.349Z,101338.73
2019-03-31T04:19:48.108Z,101335.41
2019-03-31T04:24:53.728Z,101348.31
2019-03-31T04:29:58.516Z,101361.82
2019-03-31T04:35:03.308Z,101358.13
2019-03-31T04:40:08.208Z,101361.35
2019-03-31T04:45:12.982Z,101375.09
2019-03-31T04:50:18.081Z,101376.17
2019-03-31T04:55:22.903Z,101382.65
2019-03-31T05:00:27.683Z,101382.94
2019-03-31T05:05:32.566Z,101399.26
2019-03-31T05:10:37.676Z,101406.08
2019-03-31T05:15:42.455Z,101421.86
2019-03-31T05:20:47.237Z,101428.97
2019-03-31T05:25:52.117Z,101445.52
2019-03-31T05:30:56.980Z,101452.19
2019-03-31T05:36:01.751Z,101468.27
2019-03-31T05:41:06.887Z,101487.86
2019-03-31T05:46:11.834Z,101493.03
2019-03-31T05:51:16.604Z,101506.20
2019-03-31T05:56:21.420Z,101519.94
2019-03-31T06:01:26.222Z,101526.20
2019-03-31T06:06:31.087Z,101525.58
2019-03-31T06:11:35.952Z,101539.13
2019-03-31T06:16:40.683Z,101546.16
2019-03-31T06:21:45.550Z,101553.16
2019-03-31T06:26:50.316Z,101547.27
2019-03-31T06:31:55.079Z,101546.64
2019-03-31T06:36:59.857Z,101556.25
2019-03-31T06:42:04.635Z,101564.67
2019-03-31T06:47:09.518Z,101575.34
2019-03-31T06:52:14.287Z,101571.16
2019-03-31T06:57:19.046Z,101571.45
2019-03-31T07:02:23.811Z,101578.88
2019-03-31T07:07:28.680Z,101581.12
2019-03-31T07:12:33.550Z,101584.22
2019-03-31T07:17:38.552Z,101600.33
2019-03-31T07:22:43.302Z,101600.19
2019-03-31T07:27:48.208Z,101607.13
2019-03-31T07:32:52.972Z,101616.47
2019-03-31T07:37:58.096Z,101623.13
2019-03-31T07:43:03.342Z,101628.59
2019-03-31T07:48:08.405Z,101634.27
2019-03-31T07:53:13.169Z,101639.91
2019-03-31T07:58:17.954Z,101650.52
2019-03-31T08:03:27.909Z,101648.28
2019-03-31T08:08:32.676Z,101659.48
2019-03-31T08:13:39.229Z,101661.22
2019-03-31T08:18:47.172Z,101671.66
2019-03-31T08:23:52.539Z,101677.87
2019-03-31T08:28:58.664Z,101680.90
2019-03-31T08:34:03.816Z,101693.50
2019-03-31T08:39:09.750Z,101690.50
2019-03-31T08:44:14.519Z,101690.91
2019-03-31T08:49:19.292Z,101701.75
2019-03-31T08:54:24.069Z,101705.43
2019-03-31T08:59:28.830Z,101704.23
2019-03-31T09:04:35.943Z,101716.53
2019-03-31T09:09:40.455Z,101716.58
2019-03-31T09:14:45.239Z,101719.73
2019-03-31T09:19:50.337Z,101721.09
2019-03-31T09:24:55.124Z,101719.23
2019-03-31T09:29:59.934Z,101724.20
2019-03-31T09:35:05.337Z,101737.97
2019-03-31T09:40:11.978Z,101747.88
2019-03-31T09:45:19.208Z,101743.74
2019-03-31T09:50:23.958Z,101752.34
2019-03-31T09:55:28.768Z,101753.43
2019-03-31T10:00:48.147Z,101762.98
2019-03-31T10:05:53.062Z,101772.33
2019-03-31T10:10:57.980Z,101765.42
2019-03-31T10:16:03.021Z,101775.58
2019-03-31T10:21:07.971Z,101775.58
2019-03-31T10:26:15.972Z,101775.39
2019-03-31T10:31:19.560Z,101769.92
2019-03-31T10:36:24.510Z,101756.42
2019-03-31T10:41:31.097Z,101759.85
2019-03-31T10:46:35.911Z,101758.69
2019-03-31T10:51:41.190Z,101757.58
2019-03-31T10:56:46.038Z,101768.05
2019-03-31T11:01:50.812Z,101772.98
2019-03-31T11:06:59.583Z,101763.64
2019-03-31T11:12:02.652Z,101764.09
2019-03-31T11:17:07.880Z,101761.31
2019-03-31T11:22:37.741Z,101758.95
2019-03-31T11:27:43.976Z,101765.80
2019-03-31T11:32:48.882Z,101761.95
2019-03-31T11:37:53.658Z,101765.15
2019-03-31T11:42:58.453Z,101767.08
2019-03-31T11:48:03.216Z,101769.95
2019-03-31T11:53:08.010Z,101779.14
2019-03-31T11:58:12.833Z,101779.52
2019-03-31T12:03:17.738Z,101775.95
2019-03-31T12:08:22.551Z,101779.55
2019-03-31T12:13:27.333Z,101773.16
2019-03-31T12:18:32.113Z,101765.25
2019-03-31T12:23:37.011Z,101770.46
2019-03-31T12:28:41.794Z,101770.47
2019-03-31T12:33:46.594Z,101751.67
2019-03-31T12:38:53.886Z,101749.61
2019-03-31T12:43:58.247Z,101762.98
2019-03-31T12:49:03.032Z,101770.08
2019-03-31T12:54:07.815Z,101760.64
2019-03-31T12:59:12.594Z,101758.85
2019-03-31T13:04:17.368Z,101766.56
2019-03-31T13:09:22.154Z,101774.59
2019-03-31T13:14:27.021Z,101765.63
2019-03-31T13:19:31.817Z,101769.69
2019-03-31T13:24:36.590Z,101766.62
2019-03-31T13:29:41.601Z,101763.09
2019-03-31T13:34:46.420Z,101768.16
2019-03-31T13:39:51.186Z,101756.48
2019-03-31T13:44:55.980Z,101753.00
2019-03-31T13:50:00.758Z,101753.87
2019-03-31T13:55:06.022Z,101751.49
2019-03-31T14:00:12.471Z,101745.66
2019-03-31T14:05:18.034Z,101750.97
2019-03-31T14:10:24.218Z,101756.38
2019-03-31T14:15:28.986Z,101748.81
2019-03-31T14:20:33.859Z,101760.11
2019-03-31T14:25:38.636Z,101760.64
2019-03-31T14:30:43.413Z,101771.17
2019-03-31T14:35:48.205Z,101769.88
2019-03-31T14:40:52.957Z,101774.25
2019-03-31T14:45:57.742Z,101755.27
2019-03-31T14:51:02.744Z,101765.09
2019-03-31T14:56:07.552Z,101765.52
2019-03-31T15:01:12.442Z,101773.16
2019-03-31T15:06:17.246Z,101777.66
2019-03-31T15:11:23.151Z,101774.98
2019-03-31T15:16:28.216Z,101772.15
2019-03-31T15:21:33.383Z,101775.80
2019-03-31T15:26:38.162Z,101782.55
2019-03-31T15:31:43.082Z,101790.23
2019-03-31T15:36:47.895Z,101797.44
2019-03-31T15:41:52.772Z,101794.66
2019-03-31T15:46:57.559Z,101800.28
2019-03-31T15:52:02.363Z,101801.20
2019-03-31T15:57:07.147Z,101813.79
2019-03-31T16:02:11.904Z,101804.61
2019-03-31T16:07:16.725Z,101816.09
2019-03-31T16:12:20.971Z,101822.20
2019-03-31T16:17:25.258Z,101832.46
2019-03-31T16:22:29.540Z,101829.39
2019-03-31T16:27:33.803Z,101832.76
2019-03-31T16:32:38.073Z,101833.34
2019-03-31T16:37:42.307Z,101837.16
2019-03-31T16:42:46.704Z,101831.42
2019-03-31T16:47:50.985Z,101842.64
2019-03-31T16:52:55.250Z,101834.30
2019-03-31T16:57:59.802Z,101837.21
2019-03-31T17:03:04.066Z,101844.84
2019-03-31T17:08:08.317Z,101838.47
2019-03-31T17:13:12.559Z,101848.02
2019-03-31T17:18:16.841Z,101849.95
2019-03-31T17:23:21.127Z,101858.95
2019-03-31T17:28:25.394Z,101869.75
2019-03-31T17:33:30.380Z,101876.34
2019-03-31T17:38:34.797Z,101880.30
2019-03-31T17:43:39.089Z,101887.96
2019-03-31T17:48:43.425Z,101892.73
2019-03-31T17:53:47.723Z,101896.61
2019-03-31T17:58:52.044Z,101911.23
2019-03-31T18:03:56.411Z,101914.34
2019-03-31T18:09:00.669Z,101913.47
2019-03-31T18:14:06.818Z,101921.90
2019-03-31T18:19:11.233Z,101928.43
2019-03-31T18:24:15.644Z,101924.42
2019-03-31T18:29:20.783Z,101937.48
2019-03-31T18:34:25.139Z,101942.44
2019-03-31T18:39:29.745Z,101950.33
2019-03-31T18:44:34.200Z,101962.43
2019-03-31T18:49:39.865Z,101974.50
2019-03-31T18:55:06.591Z,101981.97
2019-03-31T19:00:39.690Z,101984.19
2019-03-31T19:06:05.406Z,101999.47
2019-03-31T19:11:32.007Z,101997.66
2019-03-31T19:17:07.437Z,102003.19
2019-03-31T19:22:37.105Z,102004.91
2019-03-31T19:27:59.799Z,102014.14
2019-03-31T19:33:23.384Z,102017.84
2019-03-31T19:38:51.094Z,102022.39
2019-03-31T19:44:02.779Z,102026.09
2019-03-31T19:49:13.380Z,102040.11
2019-03-31T19:54:35.749Z,102040.64
2019-03-31T19:59:59.574Z,102043.00
2019-03-31T20:05:23.100Z,102047.67
2019-03-31T20:10:46.587Z,102059.52
2019-03-31T20:16:08.655Z,102056.86
2019-03-31T20:21:31.388Z,102056.20
2019-03-31T20:26:42.998Z,102064.20
2019-03-31T20:32:02.732Z,102069.67
2019-03-31T20:37:32.172Z,102070.00
2019-03-31T20:42:58.310Z,102072.16
2019-03-31T20:48:02.602Z,102069.63
2019-03-31T20:53:06.900Z,102082.59
2019-03-31T20:58:11.423Z,102091.56
2019-03-31T21:03:15.870Z,102098.84
2019-03-31T21:08:20.283Z,102104.13
2019-03-31T21:13:24.636Z,102103.95
2019-03-31T21:18:28.904Z,102107.06
2019-03-31T21:23:33.330Z,102115.69
2019-03-31T21:28:37.616Z,102119.27
2019-03-31T21:33:41.985Z,102120.34
2019-03-31T21:38:46.225Z,102129.61
2019-03-31T21:43:50.865Z,102138.21
2019-03-31T21:48:55.098Z,102138.33
2019-03-31T21:53:59.319Z,102145.75
2019-03-31T21:59:03.546Z,102151.57
2019-03-31T22:04:07.907Z,102152.47
2019-03-31T22:09:12.400Z,102147.66
2019-03-31T22:14:16.781Z,102155.73
2019-03-31T22:19:21.217Z,102146.55
2019-03-31T22:24:25.666Z,102150.64
2019-03-31T22:29:30.101Z,102153.56
2019-03-31T22:34:34.353Z,102162.95
2019-03-31T22:39:38.565Z,102162.94
2019-03-31T22:44:42.824Z,102168.20
2019-03-31T22:49:47.239Z,102165.66
2019-03-31T22:54:51.520Z,102164.93
2019-03-31T22:59:55.738Z,102163.75
2019-03-31T23:04:59.963Z,102158.90
2019-03-31T23:10:04.573Z,102158.84
2019-03-31T23:15:08.909Z,102163.98
2019-03-31T23:20:13.135Z,102168.79
2019-03-31T23:25:17.365Z,102163.73
2019-03-31T23:30:21.588Z,102168.66
2019-03-31T23:35:25.808Z,102171.70
2019-03-31T23:40:30.044Z,102174.65
2019-03-31T23:45:34.665Z,102183.67
2019-03-31T23:50:38.886Z,102179.52
2019-03-31T23:55:43.132Z,102181.14
